sensor_id;sensor_type;location;lat;lon;timestamp;temperature;humidity
52531;DHT22;38441;52.894;6.040;2023-01-10T00:00:38;5.70;99.90
52531;DHT22;38441;52.894;6.040;2023-01-10T00:03:06;5.80;99.90
52531;DHT22;38441;52.894;6.040;2023-01-10T00:05:33;5.90;99.90
52531;DHT22;38441;52.894;6.040;2023-01-10T00:07:58;6.00;99.90
52531;DHT22;38441;52.894;6.040;2023-01-10T00:10:26;5.70;99.90
52531;DHT22;38441;52.894;6.040;2023-01-10T00:12:52;6.00;99.90
52531;DHT22;38441;52.894;6.040;2023-01-10T00:15:37;5.90;99.90
52531;DHT22;38441;52.894;6.040;2023-01-10T00:18:02;5.90;99.90
52531;DHT22;38441;52.894;6.040;2023-01-10T00:20:28;5.90;99.90
52531;DHT22;38441;52.894;6.040;2023-01-10T00:22:54;5.80;99.90
52531;DHT22;38441;52.894;6.040;2023-01-10T00:25:20;5.90;99.90
52531;DHT22;38441;52.894;6.040;2023-01-10T00:27:51;5.90;99.90
52531;DHT22;38441;52.894;6.040;2023-01-10T00:30:27;6.00;99.90
52531;DHT22;38441;52.894;6.040;2023-01-10T00:32:52;6.00;99.90
52531;DHT22;38441;52.894;6.040;2023-01-10T00:35:18;6.00;99.90
52531;DHT22;38441;52.894;6.040;2023-01-10T00:37:44;6.00;99.90
52531;DHT22;38441;52.894;6.040;2023-01-10T00:40:11;5.80;99.90
52531;DHT22;38441;52.894;6.040;2023-01-10T00:42:36;5.90;99.90
52531;DHT22;38441;52.894;6.040;2023-01-10T00:45:22;6.00;99.90
52531;DHT22;38441;52.894;6.040;2023-01-10T00:47:50;5.80;99.90
52531;DHT22;38441;52.894;6.040;2023-01-10T00:50:16;6.10;99.90
52531;DHT22;38441;52.894;6.040;2023-01-10T00:52:42;6.00;99.90
52531;DHT22;38441;52.894;6.040;2023-01-10T00:55:08;4.50;99.90
52531;DHT22;38441;52.894;6.040;2023-01-10T00:57:34;5.80;99.90
52531;DHT22;38441;52.894;6.040;2023-01-10T00:59:59;6.00;99.90
52531;DHT22;38441;52.894;6.040;2023-01-10T01:02:25;5.90;99.90
52531;DHT22;38441;52.894;6.040;2023-01-10T01:04:50;6.00;99.90
52531;DHT22;38441;52.894;6.040;2023-01-10T01:07:16;6.00;99.90
52531;DHT22;38441;52.894;6.040;2023-01-10T01:09:41;6.00;99.90
52531;DHT22;38441;52.894;6.040;2023-01-10T01:12:26;6.00;99.90
52531;DHT22;38441;52.894;6.040;2023-01-10T01:14:51;6.10;99.90
52531;DHT22;38441;52.894;6.040;2023-01-10T01:17:17;6.10;99.90
52531;DHT22;38441;52.894;6.040;2023-01-10T01:19:43;5.80;99.90
52531;DHT22;38441;52.894;6.040;2023-01-10T01:22:08;6.10;99.90
52531;DHT22;38441;52.894;6.040;2023-01-10T01:24:34;6.00;99.90
52531;DHT22;38441;52.894;6.040;2023-01-10T01:26:59;6.00;99.90
52531;DHT22;38441;52.894;6.040;2023-01-10T01:29:25;6.00;99.90
52531;DHT22;38441;52.894;6.040;2023-01-10T01:31:51;6.20;99.90
52531;DHT22;38441;52.894;6.040;2023-01-10T01:34:16;6.10;99.90
52531;DHT22;38441;52.894;6.040;2023-01-10T01:36:42;6.10;99.90
52531;DHT22;38441;52.894;6.040;2023-01-10T01:39:08;6.00;99.90
52531;DHT22;38441;52.894;6.040;2023-01-10T01:41:33;6.10;99.90
52531;DHT22;38441;52.894;6.040;2023-01-10T01:44:18;6.20;99.90
52531;DHT22;38441;52.894;6.040;2023-01-10T01:47:00;6.30;99.90
52531;DHT22;38441;52.894;6.040;2023-01-10T01:49:27;6.20;99.90
52531;DHT22;38441;52.894;6.040;2023-01-10T01:52:00;6.10;99.90
52531;DHT22;38441;52.894;6.040;2023-01-10T01:54:28;6.30;99.90
52531;DHT22;38441;52.894;6.040;2023-01-10T01:57:12;6.20;99.90
52531;DHT22;38441;52.894;6.040;2023-01-10T01:59:42;6.30;99.90
52531;DHT22;38441;52.894;6.040;2023-01-10T02:02:21;6.10;99.90
52531;DHT22;38441;52.894;6.040;2023-01-10T02:04:52;6.30;99.90
52531;DHT22;38441;52.894;6.040;2023-01-10T02:07:19;6.20;99.90
52531;DHT22;38441;52.894;6.040;2023-01-10T02:09:58;6.20;99.90
52531;DHT22;38441;52.894;6.040;2023-01-10T02:12:26;6.20;99.90
52531;DHT22;38441;52.894;6.040;2023-01-10T02:14:54;6.20;99.90
52531;DHT22;38441;52.894;6.040;2023-01-10T02:17:20;6.20;99.90
52531;DHT22;38441;52.894;6.040;2023-01-10T02:36:59;6.40;99.90
52531;DHT22;38441;52.894;6.040;2023-01-10T02:42:28;6.50;99.90
52531;DHT22;38441;52.894;6.040;2023-01-10T02:45:16;6.30;99.90
52531;DHT22;38441;52.894;6.040;2023-01-10T02:47:42;6.40;99.90
52531;DHT22;38441;52.894;6.040;2023-01-10T02:53:00;6.40;99.90
52531;DHT22;38441;52.894;6.040;2023-01-10T02:58:37;6.20;99.90
52531;DHT22;38441;52.894;6.040;2023-01-10T03:01:22;6.60;99.90
52531;DHT22;38441;52.894;6.040;2023-01-10T03:06:57;6.40;99.90
52531;DHT22;38441;52.894;6.040;2023-01-10T03:09:43;6.40;99.90
52531;DHT22;38441;52.894;6.040;2023-01-10T03:12:30;6.40;99.90
52531;DHT22;38441;52.894;6.040;2023-01-10T03:14:59;6.30;99.90
52531;DHT22;38441;52.894;6.040;2023-01-10T03:17:27;6.30;99.90
52531;DHT22;38441;52.894;6.040;2023-01-10T03:19:59;6.20;99.90
52531;DHT22;38441;52.894;6.040;2023-01-10T03:22:25;6.30;99.90
52531;DHT22;38441;52.894;6.040;2023-01-10T03:24:55;6.20;99.90
52531;DHT22;38441;52.894;6.040;2023-01-10T03:32:29;6.30;99.90
52531;DHT22;38441;52.894;6.040;2023-01-10T03:34:55;6.40;99.90
52531;DHT22;38441;52.894;6.040;2023-01-10T03:37:35;6.50;99.90
52531;DHT22;38441;52.894;6.040;2023-01-10T03:40:11;6.40;99.90
52531;DHT22;38441;52.894;6.040;2023-01-10T03:42:46;6.40;99.90
52531;DHT22;38441;52.894;6.040;2023-01-10T03:45:42;6.50;99.90
52531;DHT22;38441;52.894;6.040;2023-01-10T03:48:09;6.30;99.90
52531;DHT22;38441;52.894;6.040;2023-01-10T03:50:36;6.40;99.90
52531;DHT22;38441;52.894;6.040;2023-01-10T03:53:04;6.50;99.90
52531;DHT22;38441;52.894;6.040;2023-01-10T03:55:30;6.60;99.90
52531;DHT22;38441;52.894;6.040;2023-01-10T03:57:57;6.50;99.90
52531;DHT22;38441;52.894;6.040;2023-01-10T04:00:22;6.50;99.90
52531;DHT22;38441;52.894;6.040;2023-01-10T04:02:48;6.50;99.90
52531;DHT22;38441;52.894;6.040;2023-01-10T04:05:14;6.40;99.90
52531;DHT22;38441;52.894;6.040;2023-01-10T04:07:40;6.50;99.90
52531;DHT22;38441;52.894;6.040;2023-01-10T04:10:06;6.40;99.90
52531;DHT22;38441;52.894;6.040;2023-01-10T04:12:32;6.40;99.90
52531;DHT22;38441;52.894;6.040;2023-01-10T04:14:57;6.30;99.90
52531;DHT22;38441;52.894;6.040;2023-01-10T04:17:23;6.50;99.90
52531;DHT22;38441;52.894;6.040;2023-01-10T04:19:48;6.40;99.90
52531;DHT22;38441;52.894;6.040;2023-01-10T04:22:14;6.40;99.90
52531;DHT22;38441;52.894;6.040;2023-01-10T04:24:40;6.40;99.90
52531;DHT22;38441;52.894;6.040;2023-01-10T04:27:06;6.40;99.90
52531;DHT22;38441;52.894;6.040;2023-01-10T04:29:31;6.40;99.90
52531;DHT22;38441;52.894;6.040;2023-01-10T04:31:57;6.30;99.90
52531;DHT22;38441;52.894;6.040;2023-01-10T04:34:23;6.40;99.90
52531;DHT22;38441;52.894;6.040;2023-01-10T04:36:48;6.30;99.90
52531;DHT22;38441;52.894;6.040;2023-01-10T04:39:14;6.40;99.90
52531;DHT22;38441;52.894;6.040;2023-01-10T04:41:40;6.30;99.90
52531;DHT22;38441;52.894;6.040;2023-01-10T04:44:06;6.30;99.90
52531;DHT22;38441;52.894;6.040;2023-01-10T04:46:31;6.30;99.90
52531;DHT22;38441;52.894;6.040;2023-01-10T04:48:57;6.10;99.90
52531;DHT22;38441;52.894;6.040;2023-01-10T04:51:26;6.30;99.90
52531;DHT22;38441;52.894;6.040;2023-01-10T04:53:53;6.20;99.90
52531;DHT22;38441;52.894;6.040;2023-01-10T04:56:20;6.30;99.90
52531;DHT22;38441;52.894;6.040;2023-01-10T04:58:46;6.20;99.90
52531;DHT22;38441;52.894;6.040;2023-01-10T05:01:18;6.30;99.90
52531;DHT22;38441;52.894;6.040;2023-01-10T05:03:49;6.10;99.90
52531;DHT22;38441;52.894;6.040;2023-01-10T05:06:15;6.30;99.90
52531;DHT22;38441;52.894;6.040;2023-01-10T05:08:41;6.40;99.90
52531;DHT22;38441;52.894;6.040;2023-01-10T05:11:07;6.30;99.90
52531;DHT22;38441;52.894;6.040;2023-01-10T05:13:32;6.50;99.90
52531;DHT22;38441;52.894;6.040;2023-01-10T05:15:58;6.40;99.90
52531;DHT22;38441;52.894;6.040;2023-01-10T05:18:25;6.40;99.90
52531;DHT22;38441;52.894;6.040;2023-01-10T05:20:51;6.50;99.90
52531;DHT22;38441;52.894;6.040;2023-01-10T05:23:17;6.30;99.90
52531;DHT22;38441;52.894;6.040;2023-01-10T05:25:42;6.40;99.90
52531;DHT22;38441;52.894;6.040;2023-01-10T05:28:08;6.30;99.90
52531;DHT22;38441;52.894;6.040;2023-01-10T05:30:34;6.30;99.90
52531;DHT22;38441;52.894;6.040;2023-01-10T05:32:59;6.40;99.90
52531;DHT22;38441;52.894;6.040;2023-01-10T05:35:27;6.30;99.90
52531;DHT22;38441;52.894;6.040;2023-01-10T05:37:53;6.40;99.90
52531;DHT22;38441;52.894;6.040;2023-01-10T05:40:18;6.30;99.90
52531;DHT22;38441;52.894;6.040;2023-01-10T05:42:44;6.10;99.90
52531;DHT22;38441;52.894;6.040;2023-01-10T05:45:10;6.30;99.90
52531;DHT22;38441;52.894;6.040;2023-01-10T05:47:35;6.30;99.90
52531;DHT22;38441;52.894;6.040;2023-01-10T05:50:01;6.10;99.90
52531;DHT22;38441;52.894;6.040;2023-01-10T05:52:27;6.10;99.90
52531;DHT22;38441;52.894;6.040;2023-01-10T05:54:52;6.00;99.90
52531;DHT22;38441;52.894;6.040;2023-01-10T05:57:18;6.10;99.90
52531;DHT22;38441;52.894;6.040;2023-01-10T05:59:44;6.20;99.90
52531;DHT22;38441;52.894;6.040;2023-01-10T06:02:10;5.90;99.90
52531;DHT22;38441;52.894;6.040;2023-01-10T06:04:35;6.10;99.90
52531;DHT22;38441;52.894;6.040;2023-01-10T06:07:01;6.10;99.90
52531;DHT22;38441;52.894;6.040;2023-01-10T06:09:27;6.10;99.90
52531;DHT22;38441;52.894;6.040;2023-01-10T06:11:52;6.10;99.90
52531;DHT22;38441;52.894;6.040;2023-01-10T06:14:18;5.80;99.90
52531;DHT22;38441;52.894;6.040;2023-01-10T06:16:46;5.90;99.90
52531;DHT22;38441;52.894;6.040;2023-01-10T06:19:12;6.00;99.90
52531;DHT22;38441;52.894;6.040;2023-01-10T06:21:37;5.90;99.90
52531;DHT22;38441;52.894;6.040;2023-01-10T06:24:03;5.70;99.90
52531;DHT22;38441;52.894;6.040;2023-01-10T06:26:29;5.80;99.90
52531;DHT22;38441;52.894;6.040;2023-01-10T06:28:54;5.70;99.90
52531;DHT22;38441;52.894;6.040;2023-01-10T06:31:20;5.80;99.90
52531;DHT22;38441;52.894;6.040;2023-01-10T06:33:49;5.70;99.90
52531;DHT22;38441;52.894;6.040;2023-01-10T06:36:15;5.70;99.90
52531;DHT22;38441;52.894;6.040;2023-01-10T06:38:40;5.80;99.90
52531;DHT22;38441;52.894;6.040;2023-01-10T06:41:06;5.60;99.90
52531;DHT22;38441;52.894;6.040;2023-01-10T06:43:42;5.70;99.90
52531;DHT22;38441;52.894;6.040;2023-01-10T06:46:10;5.70;99.90
52531;DHT22;38441;52.894;6.040;2023-01-10T06:48:36;5.90;99.90
52531;DHT22;38441;52.894;6.040;2023-01-10T06:51:03;5.70;99.90
52531;DHT22;38441;52.894;6.040;2023-01-10T06:53:29;5.70;99.90
52531;DHT22;38441;52.894;6.040;2023-01-10T06:55:55;5.60;99.90
52531;DHT22;38441;52.894;6.040;2023-01-10T06:58:22;5.80;99.90
52531;DHT22;38441;52.894;6.040;2023-01-10T07:00:48;5.80;99.90
52531;DHT22;38441;52.894;6.040;2023-01-10T07:03:14;5.80;99.90
52531;DHT22;38441;52.894;6.040;2023-01-10T07:05:39;5.60;99.90
52531;DHT22;38441;52.894;6.040;2023-01-10T07:08:05;5.90;99.90
52531;DHT22;38441;52.894;6.040;2023-01-10T07:10:30;5.70;99.90
52531;DHT22;38441;52.894;6.040;2023-01-10T07:12:57;5.80;99.90
52531;DHT22;38441;52.894;6.040;2023-01-10T07:15:24;5.80;99.90
52531;DHT22;38441;52.894;6.040;2023-01-10T07:17:50;5.60;99.90
52531;DHT22;38441;52.894;6.040;2023-01-10T07:20:16;5.50;99.90
52531;DHT22;38441;52.894;6.040;2023-01-10T07:22:41;5.70;99.90
52531;DHT22;38441;52.894;6.040;2023-01-10T07:25:07;5.50;99.90
52531;DHT22;38441;52.894;6.040;2023-01-10T07:27:33;5.60;99.90
52531;DHT22;38441;52.894;6.040;2023-01-10T07:29:59;5.70;99.90
52531;DHT22;38441;52.894;6.040;2023-01-10T07:32:25;5.80;99.90
52531;DHT22;38441;52.894;6.040;2023-01-10T07:34:50;5.60;99.90
52531;DHT22;38441;52.894;6.040;2023-01-10T07:37:16;5.60;99.90
52531;DHT22;38441;52.894;6.040;2023-01-10T07:39:41;5.40;99.90
52531;DHT22;38441;52.894;6.040;2023-01-10T07:42:10;5.60;99.90
52531;DHT22;38441;52.894;6.040;2023-01-10T07:44:36;5.70;99.90
52531;DHT22;38441;52.894;6.040;2023-01-10T07:47:02;5.70;99.90
52531;DHT22;38441;52.894;6.040;2023-01-10T07:49:28;5.70;99.90
52531;DHT22;38441;52.894;6.040;2023-01-10T07:51:53;5.50;99.90
52531;DHT22;38441;52.894;6.040;2023-01-10T07:54:19;5.50;99.90
52531;DHT22;38441;52.894;6.040;2023-01-10T07:56:45;5.70;99.90
52531;DHT22;38441;52.894;6.040;2023-01-10T07:59:15;5.70;99.90
52531;DHT22;38441;52.894;6.040;2023-01-10T08:01:40;5.60;99.90
52531;DHT22;38441;52.894;6.040;2023-01-10T08:04:07;5.50;99.90
52531;DHT22;38441;52.894;6.040;2023-01-10T08:06:33;5.60;99.90
52531;DHT22;38441;52.894;6.040;2023-01-10T08:08:58;5.40;99.90
52531;DHT22;38441;52.894;6.040;2023-01-10T08:11:24;5.70;99.90
52531;DHT22;38441;52.894;6.040;2023-01-10T08:13:49;5.50;99.90
52531;DHT22;38441;52.894;6.040;2023-01-10T08:16:15;5.50;99.90
52531;DHT22;38441;52.894;6.040;2023-01-10T08:18:41;5.40;99.90
52531;DHT22;38441;52.894;6.040;2023-01-10T08:21:08;5.70;99.90
52531;DHT22;38441;52.894;6.040;2023-01-10T08:23:34;5.60;99.90
52531;DHT22;38441;52.894;6.040;2023-01-10T08:26:00;5.50;99.90
52531;DHT22;38441;52.894;6.040;2023-01-10T08:28:26;5.70;99.90
52531;DHT22;38441;52.894;6.040;2023-01-10T08:30:52;5.60;99.90
52531;DHT22;38441;52.894;6.040;2023-01-10T08:33:20;5.70;99.90
52531;DHT22;38441;52.894;6.040;2023-01-10T08:35:47;5.60;99.90
52531;DHT22;38441;52.894;6.040;2023-01-10T08:38:12;5.60;99.90
52531;DHT22;38441;52.894;6.040;2023-01-10T08:40:38;5.50;99.90
52531;DHT22;38441;52.894;6.040;2023-01-10T08:43:06;5.60;99.90
52531;DHT22;38441;52.894;6.040;2023-01-10T08:45:33;5.60;99.90
52531;DHT22;38441;52.894;6.040;2023-01-10T08:47:58;6.00;99.90
52531;DHT22;38441;52.894;6.040;2023-01-10T08:50:24;5.80;99.90
52531;DHT22;38441;52.894;6.040;2023-01-10T08:52:50;5.70;99.90
52531;DHT22;38441;52.894;6.040;2023-01-10T08:55:17;5.80;99.90
52531;DHT22;38441;52.894;6.040;2023-01-10T08:57:43;5.70;99.90
52531;DHT22;38441;52.894;6.040;2023-01-10T09:00:09;5.80;99.90
52531;DHT22;38441;52.894;6.040;2023-01-10T09:02:38;5.90;99.90
52531;DHT22;38441;52.894;6.040;2023-01-10T09:05:04;5.90;99.90
52531;DHT22;38441;52.894;6.040;2023-01-10T09:07:29;6.10;99.90
52531;DHT22;38441;52.894;6.040;2023-01-10T09:09:55;5.90;99.90
52531;DHT22;38441;52.894;6.040;2023-01-10T09:12:20;6.00;99.90
52531;DHT22;38441;52.894;6.040;2023-01-10T09:15:05;6.00;99.90
52531;DHT22;38441;52.894;6.040;2023-01-10T09:17:31;6.20;99.90
52531;DHT22;38441;52.894;6.040;2023-01-10T09:19:56;6.10;99.90
52531;DHT22;38441;52.894;6.040;2023-01-10T09:22:22;6.00;99.90
52531;DHT22;38441;52.894;6.040;2023-01-10T09:24:48;6.20;99.90
52531;DHT22;38441;52.894;6.040;2023-01-10T09:27:14;6.40;99.90
52531;DHT22;38441;52.894;6.040;2023-01-10T09:29:39;6.30;99.90
52531;DHT22;38441;52.894;6.040;2023-01-10T09:32:05;6.30;99.90
52531;DHT22;38441;52.894;6.040;2023-01-10T09:34:30;6.20;99.90
52531;DHT22;38441;52.894;6.040;2023-01-10T09:36:56;6.30;99.90
52531;DHT22;38441;52.894;6.040;2023-01-10T09:39:22;6.40;99.90
52531;DHT22;38441;52.894;6.040;2023-01-10T09:50:24;6.50;99.90
52531;DHT22;38441;52.894;6.040;2023-01-10T09:52:55;6.70;99.90
52531;DHT22;38441;52.894;6.040;2023-01-10T09:55:29;6.50;99.90
52531;DHT22;38441;52.894;6.040;2023-01-10T09:57:57;6.60;99.90
52531;DHT22;38441;52.894;6.040;2023-01-10T10:00:34;6.60;99.90
52531;DHT22;38441;52.894;6.040;2023-01-10T10:03:05;6.50;99.90
52531;DHT22;38441;52.894;6.040;2023-01-10T10:05:35;6.40;99.90
52531;DHT22;38441;52.894;6.040;2023-01-10T10:08:01;6.60;99.90
52531;DHT22;38441;52.894;6.040;2023-01-10T10:13:52;6.70;99.90
52531;DHT22;38441;52.894;6.040;2023-01-10T10:16:23;6.70;99.90
52531;DHT22;38441;52.894;6.040;2023-01-10T10:19:00;6.60;99.90
52531;DHT22;38441;52.894;6.040;2023-01-10T10:21:48;6.70;99.90
52531;DHT22;38441;52.894;6.040;2023-01-10T10:24:41;6.70;99.90
52531;DHT22;38441;52.894;6.040;2023-01-10T10:28:06;6.70;99.90
52531;DHT22;38441;52.894;6.040;2023-01-10T10:33:38;6.80;99.90
52531;DHT22;38441;52.894;6.040;2023-01-10T10:36:29;6.70;99.90
52531;DHT22;38441;52.894;6.040;2023-01-10T10:39:00;6.60;99.90
52531;DHT22;38441;52.894;6.040;2023-01-10T10:41:40;6.60;99.90
52531;DHT22;38441;52.894;6.040;2023-01-10T10:46:50;6.90;99.90
52531;DHT22;38441;52.894;6.040;2023-01-10T10:49:37;6.80;99.90
52531;DHT22;38441;52.894;6.040;2023-01-10T10:52:23;6.80;99.90
52531;DHT22;38441;52.894;6.040;2023-01-10T10:54:49;6.80;99.90
52531;DHT22;38441;52.894;6.040;2023-01-10T10:57:15;6.80;99.90
52531;DHT22;38441;52.894;6.040;2023-01-10T10:59:45;6.80;99.90
52531;DHT22;38441;52.894;6.040;2023-01-10T11:02:38;6.70;99.90
52531;DHT22;38441;52.894;6.040;2023-01-10T11:05:12;6.70;99.90
52531;DHT22;38441;52.894;6.040;2023-01-10T11:07:39;6.70;99.90
52531;DHT22;38441;52.894;6.040;2023-01-10T11:10:15;6.60;99.90
52531;DHT22;38441;52.894;6.040;2023-01-10T11:13:16;6.70;99.90
52531;DHT22;38441;52.894;6.040;2023-01-10T11:15:46;6.80;99.90
52531;DHT22;38441;52.894;6.040;2023-01-10T11:18:14;6.90;99.90
52531;DHT22;38441;52.894;6.040;2023-01-10T11:23:53;6.80;99.90
52531;DHT22;38441;52.894;6.040;2023-01-10T11:26:39;6.80;99.90
52531;DHT22;38441;52.894;6.040;2023-01-10T11:29:24;6.80;99.90
52531;DHT22;38441;52.894;6.040;2023-01-10T11:31:53;6.60;99.90
52531;DHT22;38441;52.894;6.040;2023-01-10T11:34:32;6.60;99.90
52531;DHT22;38441;52.894;6.040;2023-01-10T11:37:22;6.70;99.90
52531;DHT22;38441;52.894;6.040;2023-01-10T11:40:22;6.70;99.90
52531;DHT22;38441;52.894;6.040;2023-01-10T11:42:51;6.60;99.90
52531;DHT22;38441;52.894;6.040;2023-01-10T11:50:31;6.50;99.90
52531;DHT22;38441;52.894;6.040;2023-01-10T11:52:57;6.60;99.90
52531;DHT22;38441;52.894;6.040;2023-01-10T11:55:25;6.60;99.90
52531;DHT22;38441;52.894;6.040;2023-01-10T11:58:08;6.50;99.90
52531;DHT22;38441;52.894;6.040;2023-01-10T12:00:39;6.50;99.90
52531;DHT22;38441;52.894;6.040;2023-01-10T12:03:24;6.50;99.90
52531;DHT22;38441;52.894;6.040;2023-01-10T12:06:14;6.50;99.90
52531;DHT22;38441;52.894;6.040;2023-01-10T12:08:40;6.60;99.90
52531;DHT22;38441;52.894;6.040;2023-01-10T12:13:48;6.60;99.90
52531;DHT22;38441;52.894;6.040;2023-01-10T12:18:43;6.60;99.90
52531;DHT22;38441;52.894;6.040;2023-01-10T12:21:11;6.70;99.90
52531;DHT22;38441;52.894;6.040;2023-01-10T12:23:39;6.50;99.90
52531;DHT22;38441;52.894;6.040;2023-01-10T12:26:08;6.60;99.90
52531;DHT22;38441;52.894;6.040;2023-01-10T12:28:40;6.50;99.90
52531;DHT22;38441;52.894;6.040;2023-01-10T12:31:12;6.40;99.90
52531;DHT22;38441;52.894;6.040;2023-01-10T12:33:42;6.50;99.90
52531;DHT22;38441;52.894;6.040;2023-01-10T12:39:02;6.60;99.90
52531;DHT22;38441;52.894;6.040;2023-01-10T12:44:22;6.50;99.90
52531;DHT22;38441;52.894;6.040;2023-01-10T12:46:56;6.50;99.90
52531;DHT22;38441;52.894;6.040;2023-01-10T12:49:28;6.50;99.90
52531;DHT22;38441;52.894;6.040;2023-01-10T12:52:00;6.50;99.90
52531;DHT22;38441;52.894;6.040;2023-01-10T12:54:28;6.40;99.90
52531;DHT22;38441;52.894;6.040;2023-01-10T12:56:57;6.60;99.90
52531;DHT22;38441;52.894;6.040;2023-01-10T13:01:52;6.40;99.90
52531;DHT22;38441;52.894;6.040;2023-01-10T13:04:21;6.50;99.90
52531;DHT22;38441;52.894;6.040;2023-01-10T13:06:49;6.50;99.90
52531;DHT22;38441;52.894;6.040;2023-01-10T13:14:17;6.50;99.90
52531;DHT22;38441;52.894;6.040;2023-01-10T13:16:51;6.40;99.90
52531;DHT22;38441;52.894;6.040;2023-01-10T13:19:22;6.40;99.90
52531;DHT22;38441;52.894;6.040;2023-01-10T13:21:49;6.50;99.90
52531;DHT22;38441;52.894;6.040;2023-01-10T13:24:25;6.40;99.90
52531;DHT22;38441;52.894;6.040;2023-01-10T13:26:56;6.50;99.90
52531;DHT22;38441;52.894;6.040;2023-01-10T13:29:29;6.30;99.90
52531;DHT22;38441;52.894;6.040;2023-01-10T13:31:58;6.50;99.90
52531;DHT22;38441;52.894;6.040;2023-01-10T13:34:31;6.40;99.90
52531;DHT22;38441;52.894;6.040;2023-01-10T13:37:10;6.50;99.90
52531;DHT22;38441;52.894;6.040;2023-01-10T13:39:42;6.40;99.90
52531;DHT22;38441;52.894;6.040;2023-01-10T13:42:33;6.40;99.90
52531;DHT22;38441;52.894;6.040;2023-01-10T13:45:23;6.60;99.90
52531;DHT22;38441;52.894;6.040;2023-01-10T13:47:56;6.20;99.90
52531;DHT22;38441;52.894;6.040;2023-01-10T14:01:24;5.40;99.90
52531;DHT22;38441;52.894;6.040;2023-01-10T14:04:22;6.40;99.90
52531;DHT22;38441;52.894;6.040;2023-01-10T14:06:53;6.30;99.90
52531;DHT22;38441;52.894;6.040;2023-01-10T14:17:22;6.50;99.90
52531;DHT22;38441;52.894;6.040;2023-01-10T14:19:59;6.40;99.90
52531;DHT22;38441;52.894;6.040;2023-01-10T14:22:28;6.20;99.90
52531;DHT22;38441;52.894;6.040;2023-01-10T14:25:03;6.50;99.90
52531;DHT22;38441;52.894;6.040;2023-01-10T14:27:50;6.40;99.90
52531;DHT22;38441;52.894;6.040;2023-01-10T14:30:33;6.50;99.90
52531;DHT22;38441;52.894;6.040;2023-01-10T14:33:10;6.50;99.90
52531;DHT22;38441;52.894;6.040;2023-01-10T14:35:41;6.50;99.90
52531;DHT22;38441;52.894;6.040;2023-01-10T14:40:56;6.50;99.90
52531;DHT22;38441;52.894;6.040;2023-01-10T14:43:26;6.50;99.90
52531;DHT22;38441;52.894;6.040;2023-01-10T14:46:15;6.50;99.90
52531;DHT22;38441;52.894;6.040;2023-01-10T14:48:47;6.50;99.90
52531;DHT22;38441;52.894;6.040;2023-01-10T14:51:26;6.40;99.90
52531;DHT22;38441;52.894;6.040;2023-01-10T14:54:03;6.60;99.90
52531;DHT22;38441;52.894;6.040;2023-01-10T14:56:46;6.60;99.90
52531;DHT22;38441;52.894;6.040;2023-01-10T15:01:48;6.60;99.90
52531;DHT22;38441;52.894;6.040;2023-01-10T15:04:16;6.30;99.90
52531;DHT22;38441;52.894;6.040;2023-01-10T15:07:01;6.50;99.90
52531;DHT22;38441;52.894;6.040;2023-01-10T15:09:30;6.70;99.90
52531;DHT22;38441;52.894;6.040;2023-01-10T15:11:59;6.50;99.90
52531;DHT22;38441;52.894;6.040;2023-01-10T15:14:27;6.40;99.90
52531;DHT22;38441;52.894;6.040;2023-01-10T15:16:56;6.60;99.90
52531;DHT22;38441;52.894;6.040;2023-01-10T15:19:25;6.50;99.90
52531;DHT22;38441;52.894;6.040;2023-01-10T15:21:52;6.50;99.90
52531;DHT22;38441;52.894;6.040;2023-01-10T15:24:33;6.50;99.90
52531;DHT22;38441;52.894;6.040;2023-01-10T15:27:03;6.60;99.90
52531;DHT22;38441;52.894;6.040;2023-01-10T15:29:30;6.50;99.90
52531;DHT22;38441;52.894;6.040;2023-01-10T15:32:07;6.50;99.90
52531;DHT22;38441;52.894;6.040;2023-01-10T15:34:35;6.50;99.90
52531;DHT22;38441;52.894;6.040;2023-01-10T15:37:02;6.50;99.90
52531;DHT22;38441;52.894;6.040;2023-01-10T15:39:34;6.50;99.90
52531;DHT22;38441;52.894;6.040;2023-01-10T15:42:04;6.50;99.90
52531;DHT22;38441;52.894;6.040;2023-01-10T15:44:56;6.50;99.90
52531;DHT22;38441;52.894;6.040;2023-01-10T15:47:40;6.40;99.90
52531;DHT22;38441;52.894;6.040;2023-01-10T15:50:22;6.40;99.90
52531;DHT22;38441;52.894;6.040;2023-01-10T15:52:49;6.30;99.90
52531;DHT22;38441;52.894;6.040;2023-01-10T15:55:35;6.40;99.90
52531;DHT22;38441;52.894;6.040;2023-01-10T15:58:20;6.50;99.90
52531;DHT22;38441;52.894;6.040;2023-01-10T16:00:49;6.40;99.90
52531;DHT22;38441;52.894;6.040;2023-01-10T16:05:59;6.30;99.90
52531;DHT22;38441;52.894;6.040;2023-01-10T16:08:29;6.50;99.90
52531;DHT22;38441;52.894;6.040;2023-01-10T16:10:58;6.40;99.90
52531;DHT22;38441;52.894;6.040;2023-01-10T16:13:25;6.40;99.90
52531;DHT22;38441;52.894;6.040;2023-01-10T16:15:56;6.40;99.90
52531;DHT22;38441;52.894;6.040;2023-01-10T16:18:22;6.40;99.90
52531;DHT22;38441;52.894;6.040;2023-01-10T16:20:50;6.50;99.90
52531;DHT22;38441;52.894;6.040;2023-01-10T16:23:20;6.20;99.90
52531;DHT22;38441;52.894;6.040;2023-01-10T16:25:49;6.20;99.90
52531;DHT22;38441;52.894;6.040;2023-01-10T16:28:17;6.40;99.90
52531;DHT22;38441;52.894;6.040;2023-01-10T16:30:43;6.30;99.90
52531;DHT22;38441;52.894;6.040;2023-01-10T16:33:18;6.30;99.90
52531;DHT22;38441;52.894;6.040;2023-01-10T16:35:49;6.30;99.90
52531;DHT22;38441;52.894;6.040;2023-01-10T16:38:17;6.30;99.90
52531;DHT22;38441;52.894;6.040;2023-01-10T16:40:55;6.50;99.90
52531;DHT22;38441;52.894;6.040;2023-01-10T16:43:21;6.50;99.90
52531;DHT22;38441;52.894;6.040;2023-01-10T16:45:49;6.30;99.90
52531;DHT22;38441;52.894;6.040;2023-01-10T16:48:15;6.30;99.90
52531;DHT22;38441;52.894;6.040;2023-01-10T16:50:46;6.50;99.90
52531;DHT22;38441;52.894;6.040;2023-01-10T16:53:14;6.30;99.90
52531;DHT22;38441;52.894;6.040;2023-01-10T16:55:49;6.30;99.90
52531;DHT22;38441;52.894;6.040;2023-01-10T16:58:16;6.20;99.90
52531;DHT22;38441;52.894;6.040;2023-01-10T17:00:43;6.40;99.90
52531;DHT22;38441;52.894;6.040;2023-01-10T17:03:19;6.20;99.90
52531;DHT22;38441;52.894;6.040;2023-01-10T17:05:46;6.40;99.90
52531;DHT22;38441;52.894;6.040;2023-01-10T17:08:20;6.40;99.90
52531;DHT22;38441;52.894;6.040;2023-01-10T17:10:49;6.30;99.90
52531;DHT22;38441;52.894;6.040;2023-01-10T17:13:42;6.50;99.90
52531;DHT22;38441;52.894;6.040;2023-01-10T17:16:07;6.40;99.90
52531;DHT22;38441;52.894;6.040;2023-01-10T17:18:32;6.50;99.90
52531;DHT22;38441;52.894;6.040;2023-01-10T17:20:58;6.30;99.90
52531;DHT22;38441;52.894;6.040;2023-01-10T17:23:25;6.40;99.90
52531;DHT22;38441;52.894;6.040;2023-01-10T17:26:03;6.30;99.90
52531;DHT22;38441;52.894;6.040;2023-01-10T17:28:29;6.30;99.90
52531;DHT22;38441;52.894;6.040;2023-01-10T17:30:55;6.40;99.90
52531;DHT22;38441;52.894;6.040;2023-01-10T17:33:22;6.30;99.90
52531;DHT22;38441;52.894;6.040;2023-01-10T17:35:51;6.50;99.90
52531;DHT22;38441;52.894;6.040;2023-01-10T17:38:17;6.50;99.90
52531;DHT22;38441;52.894;6.040;2023-01-10T17:40:44;6.20;99.90
52531;DHT22;38441;52.894;6.040;2023-01-10T17:43:11;6.50;99.90
52531;DHT22;38441;52.894;6.040;2023-01-10T17:45:45;6.50;99.90
52531;DHT22;38441;52.894;6.040;2023-01-10T17:48:12;6.40;99.90